United States

Ashburn, VA Weather Archive

Below you will find the last 24 hours of weather readings for Ashburn VA

Ashburn VA Today's Weather Data

Observed at: Ashburn, VA

Hour Observerd Temp Pressure Visibility Humidity Dew Point Wind
09:00 Fair 36°F (2.2°C) 102.27 kPa 10 miles 78% 29.8°F (-1.2°C) 1 mph WNW 297°2 mph
08:00 Fair 25°F (-3.9°C) 102.24 kPa 10 miles 95% 23.8°F (-4.6°C) 1 mph WNW 299°2 mph
07:00 Fair 22°F (-5.6°C) 102.2 kPa 10 miles 93% 20.3°F (-6.5°C) 1 mph WNW 298°2 mph
06:00 Fair 24°F (-4.4°C) 102.24 kPa 10 miles 92% 22°F (-5.5°C) 1.1 mph WNW 297°
05:00 Fair 24°F (-4.4°C) 102.24 kPa 10 miles 91% 21.8°F (-5.7°C) 2 mph WNW 297°
04:00 Fair 24°F (-4.4°C) 102.24 kPa 10 miles 89% 21.2°F (-6°C) 0.2 mph WNW 297°1 mph
03:00 Fair 26°F (-3.3°C) 102.24 kPa 10 miles 87% 22.7°F (-5.2°C) 1 mph WNW 297°
02:00 Fair 27°F (-2.8°C) 102.24 kPa 10 miles 85% 23.1°F (-4.9°C) 3.5 mph WNW 297°
01:00 Fair 27°F (-2.8°C) 102.27 kPa 10 miles 85% 23.1°F (-4.9°C) 3.5 mph WNW 298°
00:00 Fair 29°F (-1.7°C) 102.27 kPa 10 miles 80% 23.6°F (-4.7°C) 5.8 mph WNW 298°
23:00 Fair 29°F (-1.7°C) 102.24 kPa 10 miles 82% 24.2°F (-4.3°C) 5.8 mph WNW 298°
22:00 Fair 31°F (-0.6°C) 102.24 kPa 10 miles 79% 25.3°F (-3.7°C) 4.6 mph E 87°
21:00 Fair 31°F (-0.6°C) 102.27 kPa 10 miles 75% 24°F (-4.4°C) 4.6 mph NE 46°
20:00 Fair 32°F (0°C) 102.27 kPa 10 miles 71% 23.7°F (-4.6°C) 8.1 mph NE 46°
19:00 Fair 33°F (0.6°C) 102.27 kPa 10 miles 68% 23.6°F (-4.7°C) 4.6 mph NE 46°
18:00 Fair 33°F (0.6°C) 102.24 kPa 10 miles 67% 23.3°F (-4.9°C) 4.6 mph NE 46°
17:00 Fair 39°F (3.9°C) 102.2 kPa 10 miles 54% 23.8°F (-4.6°C) 5.8 mph NE 46°
16:00 Fair 41°F (5°C) 102.13 kPa 10 miles 49% 23.3°F (-4.8°C) 5.8 mph ENE 72°
15:00 Fair 42°F (5.6°C) 102.1 kPa 10 miles 47% 23.3°F (-4.9°C) 9.2 mph WNW 293°11 mph
14:00 Fair 42°F (5.6°C) 102.07 kPa 10 miles 46% 22.7°F (-5.1°C) 1 mph ESE 105°8 mph
13:00 Fair 42°F (5.6°C) 102.07 kPa 10 miles 46% 22.7°F (-5.1°C) 1 mph WNW 295°6 mph
12:00 Fair 42°F (5.6°C) 102.1 kPa 10 miles 50% 24.7°F (-4°C) 1 mph WNW 302°7 mph
11:00 Fair 41°F (5°C) 102.13 kPa 10 miles 53% 25.2°F (-3.8°C) 1 mph WNW 300°4 mph
10:00 Fair 39°F (3.9°C) 102.2 kPa 10 miles 55% 24.2°F (-4.3°C) 1 mph NW 316°12 mph